sensor_id;sensor_type;location;lat;lon;timestamp;P1;P4;P2;P0;N10;N4;N25;N1;N05;TS
66879;SPS30;53789;51.392;10.234;2023-02-01T00:00:14;6.88;6.36;5.39;3.96;31.81;31.74;31.49;30.13;24.23;0.66
66879;SPS30;53789;51.392;10.234;2023-02-01T00:00:35;6.47;5.97;5.06;3.70;29.70;29.64;29.40;28.11;22.58;0.66
66879;SPS30;53789;51.392;10.234;2023-02-01T00:00:55;5.90;5.45;4.63;3.41;27.36;27.30;27.09;25.92;20.86;0.65
66879;SPS30;53789;51.392;10.234;2023-02-01T00:01:16;6.13;5.65;4.78;3.49;28.05;27.99;27.76;26.53;21.29;0.67
66879;SPS30;53789;51.392;10.234;2023-02-01T00:01:36;6.17;5.68;4.80;3.49;28.03;27.97;27.74;26.49;21.23;0.67
66879;SPS30;53789;51.392;10.234;2023-02-01T00:01:56;6.30;5.81;4.90;3.56;28.60;28.54;28.31;27.03;21.66;0.67
66879;SPS30;53789;51.392;10.234;2023-02-01T00:02:17;6.32;5.83;4.93;3.60;28.93;28.87;28.64;27.37;21.97;0.66
66879;SPS30;53789;51.392;10.234;2023-02-01T00:02:37;6.05;5.59;4.75;3.50;28.10;28.05;27.83;26.64;21.45;0.66
66879;SPS30;53789;51.392;10.234;2023-02-01T00:02:57;6.47;6.00;5.15;3.86;30.95;30.90;30.67;29.46;23.86;0.64
66879;SPS30;53789;51.392;10.234;2023-02-01T00:03:17;6.61;6.14;5.30;4.01;32.17;32.12;31.90;30.69;24.93;0.64
66879;SPS30;53789;51.392;10.234;2023-02-01T00:03:38;6.00;5.57;4.79;3.60;28.89;28.84;28.63;27.51;22.31;0.65
66879;SPS30;53789;51.392;10.234;2023-02-01T00:03:58;6.29;5.84;5.03;3.79;30.40;30.35;30.13;28.97;23.50;0.65
66879;SPS30;53789;51.392;10.234;2023-02-01T00:04:18;6.74;6.26;5.38;4.05;32.53;32.47;32.24;30.99;25.13;0.67
66879;SPS30;53789;51.392;10.234;2023-02-01T00:04:39;6.14;5.70;4.89;3.67;29.45;29.39;29.18;28.03;22.70;0.66
66879;SPS30;53789;51.392;10.234;2023-02-01T00:04:59;6.22;5.76;4.94;3.69;29.60;29.54;29.32;28.15;22.77;0.65
66879;SPS30;53789;51.392;10.234;2023-02-01T00:05:19;5.79;5.37;4.60;3.43;27.54;27.49;27.29;26.19;21.18;0.65
66879;SPS30;53789;51.392;10.234;2023-02-01T00:05:40;5.43;5.03;4.30;3.21;25.76;25.71;25.52;24.49;19.80;0.66
66879;SPS30;53789;51.392;10.234;2023-02-01T00:06:00;6.43;5.96;5.10;3.80;30.49;30.44;30.21;28.98;23.43;0.65
66879;SPS30;53789;51.392;10.234;2023-02-01T00:06:21;6.12;5.66;4.82;3.57;28.66;28.60;28.38;27.19;21.93;0.66
66879;SPS30;53789;51.392;10.234;2023-02-01T00:06:41;6.00;5.53;4.67;3.40;27.33;27.28;27.05;25.84;20.73;0.67
66879;SPS30;53789;51.392;10.234;2023-02-01T00:07:02;6.04;5.55;4.68;3.39;27.20;27.14;26.91;25.67;20.54;0.67
66879;SPS30;53789;51.392;10.234;2023-02-01T00:07:22;6.21;5.71;4.80;3.47;27.89;27.83;27.59;26.32;21.04;0.68
66879;SPS30;53789;51.392;10.234;2023-02-01T00:07:42;6.67;6.14;5.17;3.75;30.11;30.04;29.79;28.43;22.76;0.67
66879;SPS30;53789;51.392;10.234;2023-02-01T00:08:02;6.84;6.29;5.30;3.84;30.85;30.78;30.52;29.12;23.31;0.67
66879;SPS30;53789;51.392;10.234;2023-02-01T00:08:23;6.24;5.74;4.82;3.47;27.88;27.82;27.58;26.28;20.99;0.67
66879;SPS30;53789;51.392;10.234;2023-02-01T00:08:43;6.62;6.08;5.10;3.67;29.47;29.41;29.15;27.78;22.17;0.67
66879;SPS30;53789;51.392;10.234;2023-02-01T00:09:04;5.85;5.39;4.54;3.30;26.50;26.44;26.22;25.03;20.05;0.66
66879;SPS30;53789;51.392;10.234;2023-02-01T00:09:24;5.99;5.51;4.64;3.36;26.99;26.93;26.70;25.47;20.38;0.67
66879;SPS30;53789;51.392;10.234;2023-02-01T00:09:45;6.09;5.59;4.69;3.36;26.97;26.91;26.68;25.40;20.25;0.67
66879;SPS30;53789;51.392;10.234;2023-02-01T00:10:06;7.44;6.79;5.61;3.90;31.39;31.31;31.01;29.35;23.15;0.69
66879;SPS30;53789;51.392;10.234;2023-02-01T00:10:27;8.28;7.56;6.23;4.32;34.78;34.69;34.35;32.50;25.60;0.68
66879;SPS30;53789;51.392;10.234;2023-02-01T00:10:48;8.53;7.79;6.42;4.46;35.88;35.79;35.44;33.54;26.43;0.68
66879;SPS30;53789;51.392;10.234;2023-02-01T00:11:09;8.10;7.38;6.06;4.17;33.53;33.44;33.10;31.26;24.54;0.69
66879;SPS30;53789;51.392;10.234;2023-02-01T00:11:31;7.60;6.91;5.66;3.87;31.14;31.06;30.74;28.99;22.71;0.70
66879;SPS30;53789;51.392;10.234;2023-02-01T00:11:51;7.65;6.95;5.69;3.88;31.21;31.13;30.80;29.04;22.72;0.70
66879;SPS30;53789;51.392;10.234;2023-02-01T00:12:12;7.39;6.72;5.52;3.78;30.42;30.34;30.03;28.34;22.22;0.69
66879;SPS30;53789;51.392;10.234;2023-02-01T00:12:32;6.81;6.21;5.13;3.57;28.72;28.65;28.37;26.86;21.18;0.67
66879;SPS30;53789;51.392;10.234;2023-02-01T00:12:53;6.74;6.15;5.09;3.54;28.48;28.42;28.14;26.64;21.02;0.68
66879;SPS30;53789;51.392;10.234;2023-02-01T00:13:13;6.27;5.73;4.74;3.31;26.59;26.53;26.27;24.88;19.64;0.69
66879;SPS30;53789;51.392;10.234;2023-02-01T00:13:34;5.52;5.03;4.15;2.87;23.10;23.04;22.81;21.58;16.98;0.69
66879;SPS30;53789;51.392;10.234;2023-02-01T00:13:56;5.95;5.41;4.44;3.04;24.45;24.39;24.14;22.78;17.85;0.71
66879;SPS30;53789;51.392;10.234;2023-02-01T00:14:16;6.96;6.32;5.15;3.49;28.06;27.98;27.68;26.06;20.33;0.72
66879;SPS30;53789;51.392;10.234;2023-02-01T00:14:37;7.66;6.95;5.65;3.81;30.70;30.61;30.28;28.48;22.18;0.71
66879;SPS30;53789;51.392;10.234;2023-02-01T00:14:57;7.25;6.59;5.38;3.65;29.39;29.31;29.00;27.31;21.33;0.71
66879;SPS30;53789;51.392;10.234;2023-02-01T00:15:17;7.21;6.56;5.36;3.66;29.44;29.36;29.05;27.38;21.42;0.71
66879;SPS30;53789;51.392;10.234;2023-02-01T00:15:38;5.81;5.29;4.33;2.96;23.81;23.74;23.50;22.16;17.35;0.71
66879;SPS30;53789;51.392;10.234;2023-02-01T00:16:27;6.24;5.68;4.66;3.21;25.80;25.74;25.48;24.06;18.89;0.69
66879;SPS30;53789;51.392;10.234;2023-02-01T00:16:49;7.32;6.67;5.49;3.79;30.47;30.40;30.09;28.44;22.36;0.69
66879;SPS30;53789;51.392;10.234;2023-02-01T00:17:09;7.09;6.47;5.34;3.72;29.91;29.84;29.55;27.97;22.06;0.69
66879;SPS30;53789;51.392;10.234;2023-02-01T00:17:30;7.73;7.05;5.81;4.02;32.30;32.22;31.90;30.16;23.73;0.71
66879;SPS30;53789;51.392;10.234;2023-02-01T00:17:52;6.28;5.72;4.71;3.26;26.20;26.13;25.87;24.46;19.24;0.70
66879;SPS30;53789;51.392;10.234;2023-02-01T00:18:14;5.77;5.26;4.34;3.01;24.18;24.12;23.88;22.59;17.79;0.70
66879;SPS30;53789;51.392;10.234;2023-02-01T00:18:34;6.05;5.52;4.56;3.17;25.46;25.40;25.14;23.80;18.75;0.69
66879;SPS30;53789;51.392;10.234;2023-02-01T00:18:57;7.09;6.46;5.31;3.65;29.38;29.31;29.01;27.40;21.52;0.71
66879;SPS30;53789;51.392;10.234;2023-02-01T00:19:25;7.93;7.20;5.87;3.96;31.90;31.82;31.47;29.61;23.08;0.72
66879;SPS30;53789;51.392;10.234;2023-02-01T00:19:46;7.33;6.64;5.38;3.59;28.87;28.79;28.46;26.70;20.70;0.73
66879;SPS30;53789;51.392;10.234;2023-02-01T00:20:06;7.57;6.85;5.55;3.70;29.78;29.70;29.36;27.55;21.36;0.73
66879;SPS30;53789;51.392;10.234;2023-02-01T00:20:27;7.44;6.73;5.45;3.63;29.21;29.13;28.80;27.01;20.93;0.73
66879;SPS30;53789;51.392;10.234;2023-02-01T00:20:47;6.95;6.29;5.09;3.39;27.29;27.22;26.91;25.24;19.56;0.73
66879;SPS30;53789;51.392;10.234;2023-02-01T00:21:09;7.28;6.59;5.32;3.53;28.46;28.38;28.05;26.30;20.35;0.72
66879;SPS30;53789;51.392;10.234;2023-02-01T00:21:30;7.59;6.88;5.57;3.72;29.94;29.85;29.52;27.70;21.49;0.72
66879;SPS30;53789;51.392;10.234;2023-02-01T00:21:51;6.64;6.03;4.93;3.34;26.91;26.83;26.55;25.00;19.53;0.70
66879;SPS30;53789;51.392;10.234;2023-02-01T00:22:12;6.42;5.84;4.79;3.29;26.46;26.39;26.12;24.65;19.33;0.69
66879;SPS30;53789;51.392;10.234;2023-02-01T00:22:32;6.94;6.32;5.21;3.60;28.94;28.87;28.58;27.02;21.25;0.69
66879;SPS30;53789;51.392;10.234;2023-02-01T00:22:52;7.07;6.43;5.26;3.58;28.80;28.72;28.42;26.78;20.94;0.70
66879;SPS30;53789;51.392;10.234;2023-02-01T00:23:13;6.89;6.25;5.09;3.44;27.69;27.62;27.32;25.70;20.03;0.71
66879;SPS30;53789;51.392;10.234;2023-02-01T00:23:34;6.56;5.96;4.85;3.28;26.38;26.31;26.02;24.49;19.08;0.71
66879;SPS30;53789;51.392;10.234;2023-02-01T00:23:55;6.00;5.46;4.49;3.08;24.79;24.73;24.47;23.11;18.13;0.69
66879;SPS30;53789;51.392;10.234;2023-02-01T00:24:16;6.48;5.91;4.86;3.35;26.95;26.88;26.61;25.15;19.76;0.67
66879;SPS30;53789;51.392;10.234;2023-02-01T00:24:36;6.75;6.15;5.07;3.52;28.27;28.20;27.92;26.41;20.79;0.68
66879;SPS30;53789;51.392;10.234;2023-02-01T00:24:57;7.18;6.54;5.37;3.70;29.75;29.68;29.38;27.75;21.79;0.68
66879;SPS30;53789;51.392;10.234;2023-02-01T00:25:17;7.64;6.97;5.74;3.98;31.97;31.89;31.58;29.86;23.50;0.68
66879;SPS30;53789;51.392;10.234;2023-02-01T00:25:37;7.37;6.71;5.52;3.80;30.58;30.50;30.19;28.52;22.41;0.70
66879;SPS30;53789;51.392;10.234;2023-02-01T00:25:59;7.07;6.42;5.24;3.56;28.65;28.57;28.26;26.62;20.79;0.71
66879;SPS30;53789;51.392;10.234;2023-02-01T00:26:57;6.32;5.75;4.71;3.22;25.91;25.84;25.57;24.12;18.89;0.69
66879;SPS30;53789;51.392;10.234;2023-02-01T00:27:17;7.97;7.22;5.86;3.93;31.64;31.55;31.20;29.31;22.77;0.70
66879;SPS30;53789;51.392;10.234;2023-02-01T00:27:37;8.35;7.56;6.13;4.10;32.99;32.89;32.52;30.53;23.69;0.71
66879;SPS30;53789;51.392;10.234;2023-02-01T00:27:58;8.29;7.50;6.07;4.04;32.52;32.43;32.06;30.07;23.29;0.71
66879;SPS30;53789;51.392;10.234;2023-02-01T00:28:18;7.94;7.18;5.79;3.84;30.91;30.82;30.46;28.54;22.06;0.73
66879;SPS30;53789;51.392;10.234;2023-02-01T00:28:38;7.39;6.67;5.37;3.53;28.41;28.33;27.99;26.19;20.18;0.73
66879;SPS30;53789;51.392;10.234;2023-02-01T00:28:59;6.92;6.26;5.05;3.35;26.95;26.87;26.56;24.88;19.24;0.72
66879;SPS30;53789;51.392;10.234;2023-02-01T00:29:20;5.98;5.43;4.43;3.00;24.12;24.05;23.79;22.39;17.47;0.71
66879;SPS30;53789;51.392;10.234;2023-02-01T00:29:40;6.69;6.07;4.97;3.38;27.20;27.13;26.84;25.29;19.77;0.70
66879;SPS30;53789;51.392;10.234;2023-02-01T00:30:00;7.25;6.59;5.38;3.65;29.41;29.33;29.01;27.33;21.35;0.70
66879;SPS30;53789;51.392;10.234;2023-02-01T00:30:21;7.51;6.82;5.57;3.79;30.49;30.41;30.09;28.35;22.15;0.70
66879;SPS30;53789;51.392;10.234;2023-02-01T00:30:41;6.64;6.03;4.93;3.36;27.05;26.98;26.70;25.16;19.68;0.70
66879;SPS30;53789;51.392;10.234;2023-02-01T00:31:02;6.48;5.88;4.79;3.24;26.07;26.00;25.71;24.20;18.86;0.71
66879;SPS30;53789;51.392;10.234;2023-02-01T00:31:24;7.18;6.50;5.26;3.51;28.27;28.19;27.87;26.15;20.28;0.71
66879;SPS30;53789;51.392;10.234;2023-02-01T00:31:44;7.48;6.78;5.49;3.67;29.57;29.49;29.16;27.37;21.24;0.70
66879;SPS30;53789;51.392;10.234;2023-02-01T00:32:05;7.05;6.39;5.20;3.50;28.19;28.12;27.81;26.15;20.36;0.70
66879;SPS30;53789;51.392;10.234;2023-02-01T00:32:26;6.30;5.73;4.69;3.20;25.71;25.64;25.37;23.92;18.71;0.70
66879;SPS30;53789;51.392;10.234;2023-02-01T00:32:46;5.99;5.45;4.47;3.07;24.70;24.63;24.38;23.02;18.05;0.70
66879;SPS30;53789;51.392;10.234;2023-02-01T00:33:06;6.75;6.14;5.02;3.43;27.60;27.53;27.24;25.69;20.11;0.70
66879;SPS30;53789;51.392;10.234;2023-02-01T00:33:27;7.31;6.65;5.45;3.73;29.97;29.89;29.58;27.90;21.85;0.70
66879;SPS30;53789;51.392;10.234;2023-02-01T00:33:48;8.09;7.37;6.07;4.19;33.70;33.61;33.28;31.45;24.73;0.69
66879;SPS30;53789;51.392;10.234;2023-02-01T00:34:10;7.29;6.65;5.49;3.81;30.63;30.56;30.25;28.63;22.55;0.69
66879;SPS30;53789;51.392;10.234;2023-02-01T00:34:33;6.93;6.33;5.23;3.64;29.28;29.21;28.92;27.38;21.60;0.69
66879;SPS30;53789;51.392;10.234;2023-02-01T00:34:53;7.57;6.90;5.68;3.94;31.65;31.57;31.26;29.56;23.27;0.70
66879;SPS30;53789;51.392;10.234;2023-02-01T00:35:13;7.35;6.70;5.51;3.80;30.60;30.52;30.22;28.56;22.45;0.69
66879;SPS30;53789;51.392;10.234;2023-02-01T00:35:34;6.54;5.97;4.92;3.41;27.43;27.36;27.09;25.63;20.18;0.69
66879;SPS30;53789;51.392;10.234;2023-02-01T00:35:59;7.57;6.89;5.66;3.88;31.23;31.15;30.83;29.11;22.83;0.69
66879;SPS30;53789;51.392;10.234;2023-02-01T00:36:21;7.23;6.58;5.39;3.70;29.76;29.68;29.37;27.72;21.74;0.68
66879;SPS30;53789;51.392;10.234;2023-02-01T00:36:42;6.83;6.22;5.11;3.51;28.26;28.18;27.90;26.34;20.68;0.68
66879;SPS30;53789;51.392;10.234;2023-02-01T00:37:03;7.37;6.70;5.50;3.77;30.30;30.22;29.91;28.22;22.12;0.69
66879;SPS30;53789;51.392;10.234;2023-02-01T00:37:23;7.61;6.91;5.63;3.81;30.67;30.59;30.26;28.48;22.21;0.70
66879;SPS30;53789;51.392;10.234;2023-02-01T00:37:43;7.65;6.95;5.67;3.85;31.02;30.94;30.61;28.83;22.52;0.70
66879;SPS30;53789;51.392;10.234;2023-02-01T00:38:04;7.21;6.56;5.39;3.70;29.75;29.67;29.36;27.72;21.74;0.69
66879;SPS30;53789;51.392;10.234;2023-02-01T00:38:25;7.27;6.62;5.44;3.74;30.06;29.98;29.67;28.02;21.99;0.69
66879;SPS30;53789;51.392;10.234;2023-02-01T00:38:46;7.44;6.79;5.59;3.87;31.10;31.03;30.72;29.04;22.85;0.68
66879;SPS30;53789;51.392;10.234;2023-02-01T00:39:06;7.34;6.71;5.57;3.91;31.44;31.36;31.06;29.46;23.31;0.67
66879;SPS30;53789;51.392;10.234;2023-02-01T00:39:27;6.45;5.90;4.92;3.48;27.97;27.90;27.65;26.26;20.84;0.66
66879;SPS30;53789;51.392;10.234;2023-02-01T00:39:47;6.56;6.01;5.00;3.53;28.40;28.33;28.07;26.66;21.14;0.66
66879;SPS30;53789;51.392;10.234;2023-02-01T00:40:08;6.98;6.40;5.35;3.81;30.58;30.51;30.24;28.75;22.86;0.65
66879;SPS30;53789;51.392;10.234;2023-02-01T00:40:30;7.09;6.50;5.43;3.86;31.04;30.97;30.69;29.19;23.21;0.67
66879;SPS30;53789;51.392;10.234;2023-02-01T00:40:51;6.80;6.22;5.17;3.65;29.33;29.26;28.99;27.51;21.81;0.67
66879;SPS30;53789;51.392;10.234;2023-02-01T00:41:31;6.89;6.28;5.17;3.57;28.69;28.62;28.33;26.78;21.05;0.70
66879;SPS30;53789;51.392;10.234;2023-02-01T00:41:52;6.61;6.02;4.94;3.40;27.33;27.26;26.98;25.48;20.00;0.69
66879;SPS30;53789;51.392;10.234;2023-02-01T00:42:12;7.71;7.04;5.83;4.08;32.79;32.71;32.40;30.70;24.26;0.68
66879;SPS30;53789;51.392;10.234;2023-02-01T00:42:32;6.83;6.25;5.20;3.66;29.43;29.36;29.09;27.61;21.87;0.68
66879;SPS30;53789;51.392;10.234;2023-02-01T00:42:53;6.23;5.70;4.74;3.35;26.91;26.85;26.60;25.25;20.02;0.68
66879;SPS30;53789;51.392;10.234;2023-02-01T00:43:13;6.49;5.93;4.92;3.45;27.74;27.68;27.41;25.99;20.56;0.69
66879;SPS30;53789;51.392;10.234;2023-02-01T00:43:34;7.57;6.91;5.72;3.99;32.05;31.97;31.66;29.98;23.66;0.68
66879;SPS30;53789;51.392;10.234;2023-02-01T00:43:54;8.12;7.41;6.13;4.28;34.42;34.34;34.01;32.22;25.43;0.68
66879;SPS30;53789;51.392;10.234;2023-02-01T00:44:14;6.82;6.23;5.15;3.58;28.82;28.75;28.47;26.96;21.26;0.69
66879;SPS30;53789;51.392;10.234;2023-02-01T00:44:35;6.88;6.28;5.19;3.60;28.98;28.91;28.62;27.09;21.35;0.70
66879;SPS30;53789;51.392;10.234;2023-02-01T00:44:55;7.54;6.86;5.61;3.82;30.76;30.68;30.36;28.62;22.39;0.71
66879;SPS30;53789;51.392;10.234;2023-02-01T00:45:15;7.33;6.62;5.33;3.51;28.28;28.20;27.86;26.08;20.11;0.73
66879;SPS30;53789;51.392;10.234;2023-02-01T00:45:36;7.93;7.14;5.72;3.71;29.91;29.82;29.45;27.47;21.06;0.74
66879;SPS30;53789;51.392;10.234;2023-02-01T00:45:56;7.02;6.32;5.05;3.26;26.27;26.19;25.86;24.10;18.43;0.75
66879;SPS30;53789;51.392;10.234;2023-02-01T00:46:17;6.76;6.08;4.84;3.12;25.12;25.04;24.72;23.02;17.57;0.75
66879;SPS30;53789;51.392;10.234;2023-02-01T00:46:39;7.58;6.81;5.41;3.45;27.84;27.75;27.39;25.46;19.37;0.76
66879;SPS30;53789;51.392;10.234;2023-02-01T00:46:59;8.00;7.20;5.74;3.70;29.81;29.72;29.34;27.32;20.87;0.74
66879;SPS30;53789;51.392;10.234;2023-02-01T00:47:20;7.83;7.05;5.64;3.65;29.41;29.32;28.96;27.00;20.67;0.74
66879;SPS30;53789;51.392;10.234;2023-02-01T00:47:40;7.66;6.93;5.60;3.72;29.96;29.87;29.53;27.68;21.42;0.73
66879;SPS30;53789;51.392;10.234;2023-02-01T00:48:01;7.55;6.84;5.55;3.72;29.91;29.82;29.49;27.69;21.51;0.72
66879;SPS30;53789;51.392;10.234;2023-02-01T00:48:21;8.11;7.35;5.97;4.00;32.21;32.12;31.76;29.84;23.19;0.73
66879;SPS30;53789;51.392;10.234;2023-02-01T00:48:41;7.81;7.08;5.77;3.89;31.32;31.24;30.90;29.06;22.64;0.72
66879;SPS30;53789;51.392;10.234;2023-02-01T00:49:02;7.51;6.82;5.55;3.75;30.14;30.06;29.73;27.97;21.79;0.72
66879;SPS30;53789;51.392;10.234;2023-02-01T00:49:23;7.16;6.50;5.30;3.59;28.87;28.80;28.48;26.81;20.91;0.71
66879;SPS30;53789;51.392;10.234;2023-02-01T00:49:43;7.47;6.78;5.52;3.73;30.04;29.96;29.63;27.88;21.73;0.72
66879;SPS30;53789;51.392;10.234;2023-02-01T00:50:03;7.29;6.62;5.42;3.69;29.69;29.62;29.30;27.62;21.60;0.72
66879;SPS30;53789;51.392;10.234;2023-02-01T00:50:24;6.58;6.00;4.94;3.42;27.49;27.42;27.15;25.67;20.20;0.70
66879;SPS30;53789;51.392;10.234;2023-02-01T00:50:44;6.26;5.69;4.67;3.19;25.68;25.61;25.34;23.91;18.73;0.73
66879;SPS30;53789;51.392;10.234;2023-02-01T00:51:06;7.22;6.55;5.33;3.59;28.92;28.84;28.53;26.83;20.90;0.73
66879;SPS30;53789;51.392;10.234;2023-02-01T00:51:32;7.15;6.49;5.29;3.58;28.77;28.69;28.38;26.71;20.82;0.73
66879;SPS30;53789;51.392;10.234;2023-02-01T00:51:52;6.02;5.47;4.47;3.03;24.41;24.35;24.09;22.69;17.72;0.72
66879;SPS30;53789;51.392;10.234;2023-02-01T00:52:12;6.69;6.08;4.97;3.38;27.18;27.10;26.82;25.26;19.74;0.72
66879;SPS30;53789;51.392;10.234;2023-02-01T00:52:33;7.40;6.71;5.45;3.67;29.52;29.44;29.11;27.36;21.29;0.73
66879;SPS30;53789;51.392;10.234;2023-02-01T00:52:53;6.85;6.20;5.02;3.36;27.04;26.97;26.66;25.03;19.42;0.72
66879;SPS30;53789;51.392;10.234;2023-02-01T00:53:13;7.60;6.89;5.60;3.76;30.30;30.22;29.88;28.09;21.84;0.72
66879;SPS30;53789;51.392;10.234;2023-02-01T00:53:34;8.78;7.96;6.46;4.34;34.97;34.88;34.49;32.42;25.21;0.73
66879;SPS30;53789;51.392;10.234;2023-02-01T00:53:55;8.11;7.35;5.98;4.03;32.44;32.35;32.00;30.09;23.43;0.73
66879;SPS30;53789;51.392;10.234;2023-02-01T00:54:15;7.17;6.50;5.27;3.52;28.34;28.26;27.95;26.23;20.36;0.73
66879;SPS30;53789;51.392;10.234;2023-02-01T00:54:35;6.87;6.24;5.08;3.43;27.58;27.50;27.20;25.59;19.93;0.72
66879;SPS30;53789;51.392;10.234;2023-02-01T00:54:56;7.01;6.36;5.18;3.51;28.21;28.14;27.83;26.20;20.43;0.71
66879;SPS30;53789;51.392;10.234;2023-02-01T00:55:16;6.94;6.31;5.16;3.52;28.35;28.28;27.98;26.38;20.64;0.70
66879;SPS30;53789;51.392;10.234;2023-02-01T00:55:36;7.31;6.65;5.47;3.76;30.22;30.15;29.84;28.18;22.11;0.69
66879;SPS30;53789;51.392;10.234;2023-02-01T00:55:56;7.47;6.80;5.58;3.83;30.83;30.75;30.44;28.73;22.54;0.70
66879;SPS30;53789;51.392;10.234;2023-02-01T00:56:17;7.66;6.97;5.70;3.90;31.34;31.26;30.93;29.17;22.83;0.70
66879;SPS30;53789;51.392;10.234;2023-02-01T00:56:37;7.87;7.16;5.88;4.03;32.42;32.34;32.00;30.20;23.68;0.71
66879;SPS30;53789;51.392;10.234;2023-02-01T00:56:58;7.34;6.68;5.48;3.76;30.26;30.19;29.88;28.20;22.12;0.71
66879;SPS30;53789;51.392;10.234;2023-02-01T00:57:18;7.02;6.37;5.20;3.52;28.30;28.22;27.92;26.28;20.49;0.72
66879;SPS30;53789;51.392;10.234;2023-02-01T00:57:38;7.62;6.91;5.60;3.75;30.21;30.13;29.79;27.98;21.73;0.72
66879;SPS30;53789;51.392;10.234;2023-02-01T00:57:59;6.85;6.20;5.03;3.37;27.15;27.07;26.77;25.14;19.53;0.72
66879;SPS30;53789;51.392;10.234;2023-02-01T00:58:19;7.26;6.58;5.35;3.60;28.95;28.87;28.55;26.83;20.87;0.72
66879;SPS30;53789;51.392;10.234;2023-02-01T00:58:39;7.69;6.98;5.70;3.87;31.17;31.09;30.75;28.97;22.63;0.71
66879;SPS30;53789;51.392;10.234;2023-02-01T00:58:59;7.08;6.45;5.30;3.66;29.40;29.33;29.03;27.43;21.55;0.70
66879;SPS30;53789;51.392;10.234;2023-02-01T00:59:20;6.89;6.27;5.15;3.55;28.52;28.45;28.16;26.60;20.89;0.71
66879;SPS30;53789;51.392;10.234;2023-02-01T00:59:40;6.86;6.23;5.09;3.46;27.87;27.79;27.50;25.91;20.25;0.71
66879;SPS30;53789;51.392;10.234;2023-02-01T01:00:00;7.44;6.75;5.50;3.71;29.90;29.82;29.49;27.75;21.62;0.72
66879;SPS30;53789;51.392;10.234;2023-02-01T01:00:21;6.85;6.21;5.04;3.37;27.16;27.09;26.78;25.16;19.54;0.71
66879;SPS30;53789;51.392;10.234;2023-02-01T01:00:41;7.30;6.63;5.39;3.64;29.31;29.23;28.91;27.20;21.19;0.71
66879;SPS30;53789;51.392;10.234;2023-02-01T01:01:30;7.57;6.86;5.56;3.72;29.91;29.82;29.49;27.68;21.48;0.72
66879;SPS30;53789;51.392;10.234;2023-02-01T01:01:50;8.45;7.66;6.22;4.18;33.63;33.53;33.16;31.16;24.22;0.70
66879;SPS30;53789;51.392;10.234;2023-02-01T01:02:10;7.19;6.55;5.39;3.72;29.88;29.81;29.51;27.88;21.91;0.68
66879;SPS30;53789;51.392;10.234;2023-02-01T01:02:30;6.44;5.89;4.89;3.44;27.64;27.58;27.32;25.91;20.51;0.67
66879;SPS30;53789;51.392;10.234;2023-02-01T01:02:51;6.05;5.54;4.63;3.30;26.49;26.43;26.19;24.91;19.81;0.66
66879;SPS30;53789;51.392;10.234;2023-02-01T01:03:11;6.36;5.83;4.87;3.47;27.92;27.86;27.61;26.26;20.90;0.66
66879;SPS30;53789;51.392;10.234;2023-02-01T01:03:33;6.41;5.87;4.90;3.48;27.94;27.88;27.62;26.25;20.86;0.66
66879;SPS30;53789;51.392;10.234;2023-02-01T01:03:56;6.16;5.64;4.71;3.34;26.85;26.78;26.54;25.22;20.04;0.65
66879;SPS30;53789;51.392;10.234;2023-02-01T01:04:18;7.69;7.05;5.87;4.16;33.47;33.39;33.08;31.43;24.96;0.65
66879;SPS30;53789;51.392;10.234;2023-02-01T01:04:39;7.35;6.72;5.58;3.92;31.53;31.45;31.16;29.55;23.39;0.66
66879;SPS30;53789;51.392;10.234;2023-02-01T01:04:59;7.39;6.75;5.57;3.87;31.10;31.03;30.72;29.07;22.91;0.67
66879;SPS30;53789;51.392;10.234;2023-02-01T01:05:19;7.62;6.95;5.73;3.98;31.99;31.91;31.60;29.89;23.54;0.66
66879;SPS30;53789;51.392;10.234;2023-02-01T01:05:40;6.78;6.18;5.08;3.50;28.19;28.12;27.83;26.30;20.67;0.66
66879;SPS30;53789;51.392;10.234;2023-02-01T01:06:01;7.59;6.91;5.67;3.89;31.30;31.22;30.90;29.17;22.88;0.66
66879;SPS30;53789;51.392;10.234;2023-02-01T01:06:28;7.50;6.83;5.63;3.89;31.29;31.21;30.90;29.21;22.98;0.66
66879;SPS30;53789;51.392;10.234;2023-02-01T01:06:50;7.24;6.61;5.45;3.79;30.49;30.41;30.11;28.50;22.46;0.65
66879;SPS30;53789;51.392;10.234;2023-02-01T01:07:11;7.44;6.78;5.59;3.87;31.14;31.06;30.75;29.08;22.89;0.66
66879;SPS30;53789;51.392;10.234;2023-02-01T01:07:31;6.90;6.28;5.16;3.54;28.49;28.41;28.12;26.55;20.83;0.66
66879;SPS30;53789;51.392;10.234;2023-02-01T01:07:51;7.26;6.60;5.41;3.69;29.72;29.64;29.33;27.66;21.66;0.67
66879;SPS30;53789;51.392;10.234;2023-02-01T01:08:12;7.54;6.84;5.58;3.78;30.40;30.32;29.99;28.24;22.03;0.67
66879;SPS30;53789;51.392;10.234;2023-02-01T01:08:33;7.85;7.13;5.83;3.98;32.00;31.91;31.58;29.77;23.28;0.67
66879;SPS30;53789;51.392;10.234;2023-02-01T01:08:54;8.26;7.50;6.12;4.16;33.48;33.39;33.04;31.12;24.31;0.68
66879;SPS30;53789;51.392;10.234;2023-02-01T01:09:16;8.29;7.51;6.10;4.09;32.93;32.83;32.47;30.50;23.70;0.68
66879;SPS30;53789;51.392;10.234;2023-02-01T01:09:36;7.25;6.56;5.31;3.54;28.53;28.45;28.13;26.39;20.46;0.69
66879;SPS30;53789;51.392;10.234;2023-02-01T01:09:57;8.64;7.81;6.30;4.16;33.51;33.42;33.03;30.93;23.88;0.69
66879;SPS30;53789;51.392;10.234;2023-02-01T01:10:17;8.87;7.99;6.39;4.14;33.35;33.25;32.84;30.62;23.45;0.72
66879;SPS30;53789;51.392;10.234;2023-02-01T01:10:37;9.47;8.51;6.77;4.33;34.92;34.81;34.36;31.95;24.33;0.72
66879;SPS30;53789;51.392;10.234;2023-02-01T01:10:58;9.29;8.38;6.72;4.39;35.36;35.25;34.82;32.53;24.99;0.71
66879;SPS30;53789;51.392;10.234;2023-02-01T01:11:18;9.42;8.50;6.83;4.48;36.05;35.94;35.51;33.20;25.54;0.72
66879;SPS30;53789;51.392;10.234;2023-02-01T01:11:41;8.86;7.99;6.42;4.20;33.84;33.74;33.33;31.15;23.96;0.72
66879;SPS30;53789;51.392;10.234;2023-02-01T01:12:02;8.00;7.22;5.80;3.80;30.64;30.55;30.18;28.21;21.71;0.72
66879;SPS30;53789;51.392;10.234;2023-02-01T01:12:22;7.72;6.98;5.64;3.74;30.07;29.99;29.64;27.77;21.47;0.72
66879;SPS30;53789;51.392;10.234;2023-02-01T01:12:42;7.14;6.45;5.20;3.43;27.61;27.53;27.21;25.47;19.66;0.73
66879;SPS30;53789;51.392;10.234;2023-02-01T01:13:03;6.99;6.30;5.06;3.31;26.67;26.59;26.27;24.55;18.87;0.73
66879;SPS30;53789;51.392;10.234;2023-02-01T01:13:23;7.88;7.11;5.71;3.74;30.12;30.03;29.67;27.73;21.33;0.73
66879;SPS30;53789;51.392;10.234;2023-02-01T01:13:45;8.22;7.43;5.99;3.95;31.81;31.72;31.34;29.34;22.64;0.73
66879;SPS30;53789;51.392;10.234;2023-02-01T01:14:08;6.80;6.16;4.98;3.31;26.67;26.60;26.30;24.66;19.10;0.72
66879;SPS30;53789;51.392;10.234;2023-02-01T01:14:30;7.09;6.43;5.24;3.55;28.56;28.49;28.18;26.52;20.69;0.71
66879;SPS30;53789;51.392;10.234;2023-02-01T01:14:52;7.65;6.95;5.69;3.89;31.26;31.18;30.85;29.09;22.77;0.71
66879;SPS30;53789;51.392;10.234;2023-02-01T01:15:12;7.17;6.52;5.34;3.65;29.33;29.26;28.95;27.30;21.37;0.72
66879;SPS30;53789;51.392;10.234;2023-02-01T01:15:36;7.65;6.95;5.67;3.84;30.90;30.82;30.49;28.70;22.40;0.72
66879;SPS30;53789;51.392;10.234;2023-02-01T01:15:59;7.15;6.49;5.29;3.58;28.81;28.73;28.42;26.75;20.86;0.72
66879;SPS30;53789;51.392;10.234;2023-02-01T01:16:24;6.52;5.92;4.85;3.31;26.63;26.56;26.29;24.79;19.40;0.71
66879;SPS30;53789;51.392;10.234;2023-02-01T01:16:46;6.94;6.32;5.19;3.57;28.72;28.65;28.35;26.78;21.03;0.72
66879;SPS30;53789;51.392;10.234;2023-02-01T01:17:07;7.27;6.60;5.38;3.64;29.32;29.24;28.93;27.23;21.24;0.73
66879;SPS30;53789;51.392;10.234;2023-02-01T01:17:27;7.56;6.87;5.62;3.84;30.89;30.81;30.48;28.74;22.50;0.73
66879;SPS30;53789;51.392;10.234;2023-02-01T01:17:47;7.71;7.01;5.73;3.89;31.33;31.25;30.92;29.13;22.76;0.74
66879;SPS30;53789;51.392;10.234;2023-02-01T01:18:08;7.57;6.86;5.58;3.76;30.28;30.20;29.86;28.08;21.87;0.73
66879;SPS30;53789;51.392;10.234;2023-02-01T01:18:29;7.77;7.06;5.77;3.92;31.58;31.49;31.16;29.36;22.95;0.73
66879;SPS30;53789;51.392;10.234;2023-02-01T01:18:50;7.84;7.10;5.76;3.86;31.11;31.02;30.68;28.82;22.39;0.75
66879;SPS30;53789;51.392;10.234;2023-02-01T01:19:11;7.73;7.00;5.67;3.79;30.52;30.44;30.10;28.25;21.93;0.74